Time;durP1;ratioP1;P1;durP2;ratioP2;P2;SDS_P1;SDS_P2;PMS_P1;PMS_P2;Temp;Humidity;BMP_temperature;BMP_pressure;BME280_temperature;BME280_humidity;BME280_pressure;Samples;Min_cycle;Max_cycle;Signal;HPM_P1;HPM_P2
2021/04/05 00:02:45;;;;;;;15.50;9.23;;;;;;;3.78;75.40;100180.91;20897361;28;20102;-69
2021/04/05 00:12:47;;;;;;;17.58;8.45;;;;;;;3.72;75.90;100186.25;20911502;28;20095;-70
2021/04/05 00:22:48;;;;;;;17.70;8.07;;;;;;;3.65;75.86;100166.63;20910497;28;20492;-70
2021/04/05 00:32:50;;;;;;;18.08;8.80;;;;;;;3.67;76.66;100147.56;20909020;28;20048;-70
2021/04/05 00:42:51;;;;;;;17.90;8.63;;;;;;;3.70;76.32;100138.88;20908603;28;20048;-70
2021/04/05 00:52:53;;;;;;;26.65;9.35;;;;;;;3.72;75.72;100130.16;20906326;28;20149;-69
2021/04/05 01:02:54;;;;;;;19.10;9.15;;;;;;;3.73;75.54;100131.00;20889289;28;20053;-69
2021/04/05 01:12:56;;;;;;;20.42;8.35;;;;;;;3.69;75.70;100112.16;20907161;28;20552;-69
2021/04/05 01:22:58;;;;;;;23.63;10.45;;;;;;;3.64;77.05;100089.88;20908138;28;20488;-70
2021/04/05 01:33:05;;;;;;;16.40;8.68;;;;;;;3.71;76.75;100037.03;20905115;28;20051;-70
2021/04/05 01:43:07;;;;;;;21.33;8.95;;;;;;;3.88;76.18;100017.47;20908067;28;20044;-70
2021/04/05 01:53:18;;;;;;;23.85;9.45;;;;;;;4.06;75.82;100005.66;20903594;28;20079;-70
2021/04/05 02:03:19;;;;;;;24.40;9.45;;;;;;;4.16;74.55;99996.69;20976750;28;20613;-70
2021/04/05 02:13:22;;;;;;;24.27;9.23;;;;;;;4.26;74.17;99986.84;20985002;28;20103;-70
2021/04/05 02:23:26;;;;;;;18.25;7.93;;;;;;;4.22;74.96;99972.28;20938687;28;20045;-70
2021/04/05 02:33:27;;;;;;;21.80;8.68;;;;;;;4.32;74.73;99970.25;20901402;28;20045;-70
2021/04/05 02:43:28;;;;;;;16.70;7.95;;;;;;;4.36;74.63;99956.28;20901195;28;20048;-70
2021/04/05 02:53:31;;;;;;;20.88;7.97;;;;;;;4.35;74.23;99926.09;20898942;28;20055;-72
2021/04/05 03:03:32;;;;;;;18.73;8.20;;;;;;;4.23;74.68;99906.63;20901507;28;20570;-69
2021/04/05 03:13:37;;;;;;;23.30;8.55;;;;;;;4.16;76.08;99887.91;20915492;28;20459;-70
2021/04/05 03:23:39;;;;;;;24.57;8.70;;;;;;;4.21;77.00;99893.78;20914959;28;20558;-71
2021/04/05 03:33:56;;;;;;;26.48;9.13;;;;;;;4.67;75.90;99881.69;20914072;28;20041;-71
2021/04/05 03:44:18;;;;;;;20.48;8.82;;;;;;;5.10;75.04;99847.09;20913132;28;20397;-70
2021/04/05 03:54:22;;;;;;;23.38;9.48;;;;;;;5.39;73.96;99843.28;20913677;28;20049;-70
2021/04/05 04:04:33;;;;;;;20.90;8.10;;;;;;;5.37;74.30;99833.00;20976630;28;20075;-70
2021/04/05 04:14:39;;;;;;;20.88;9.23;;;;;;;5.40;73.40;99813.84;20993873;28;20147;-71
2021/04/05 04:24:41;;;;;;;22.13;8.48;;;;;;;5.27;74.12;99820.47;20935922;28;20100;-70
2021/04/05 04:34:42;;;;;;;24.00;9.00;;;;;;;5.10;75.04;99808.19;20907862;28;20103;-71
2021/04/05 04:44:44;;;;;;;22.17;9.02;;;;;;;5.12;74.52;99777.88;20907672;28;20128;-70
2021/04/05 04:54:46;;;;;;;26.98;9.82;;;;;;;5.09;74.77;99768.44;20906930;28;20080;-70
2021/04/05 05:04:48;;;;;;;24.73;9.77;;;;;;;5.03;75.13;99766.09;20867850;23;20112;-69
2021/04/05 05:14:49;;;;;;;23.08;9.93;;;;;;;4.97;75.62;99748.22;20873996;28;20514;-69
2021/04/05 05:24:52;;;;;;;32.70;11.45;;;;;;;5.09;75.14;99750.28;20905381;28;20053;-68
2021/04/05 05:34:53;;;;;;;28.67;11.18;;;;;;;5.13;75.46;99749.25;20903796;28;20045;-68
2021/04/05 05:45:06;;;;;;;43.00;17.63;;;;;;;5.33;75.32;99740.63;20903328;28;20057;-68
2021/04/05 05:55:30;;;;;;;34.25;14.48;;;;;;;5.70;74.43;99719.06;20902325;28;20049;-68
2021/04/05 06:05:50;;;;;;;36.20;15.18;;;;;;;5.86;74.10;99721.81;20873539;28;20048;-68
2021/04/05 06:16:16;;;;;;;39.45;15.80;;;;;;;6.15;72.60;99721.31;20975110;28;20093;-69
2021/04/05 06:26:51;;;;;;;35.35;16.15;;;;;;;6.23;72.14;99701.03;20914092;28;20048;-69
2021/04/05 06:37:22;;;;;;;40.33;15.63;;;;;;;6.33;72.27;99698.84;20900563;28;20045;-68
2021/04/05 06:47:44;;;;;;;37.45;16.77;;;;;;;6.45;71.62;99675.66;20937050;28;20319;-68
2021/04/05 06:58:13;;;;;;;49.90;18.67;;;;;;;6.51;71.56;99682.31;20950468;28;20519;-68
2021/04/05 07:08:32;;;;;;;44.60;18.67;;;;;;;6.88;70.33;99690.00;20904624;28;20114;-68
2021/04/05 07:18:44;;;;;;;41.22;17.85;;;;;;;6.98;70.16;99661.75;20913574;28;20044;-68
2021/04/05 07:28:59;;;;;;;41.58;19.02;;;;;;;7.32;69.34;99666.03;20909248;28;20048;-68
2021/04/05 07:39:07;;;;;;;45.90;19.93;;;;;;;7.54;68.70;99665.75;20902160;28;20045;-68
2021/04/05 07:49:25;;;;;;;49.42;18.65;;;;;;;7.85;67.54;99655.34;20901977;28;20045;-68
2021/04/05 07:59:44;;;;;;;42.55;19.50;;;;;;;8.04;66.04;99658.59;20936772;28;20041;-67
2021/04/05 08:10:03;;;;;;;40.72;18.60;;;;;;;8.10;65.29;99633.97;20917231;28;20641;-67
2021/04/05 08:20:11;;;;;;;46.50;20.02;;;;;;;8.37;63.97;99619.41;20899415;28;20749;-69
2021/04/05 08:30:21;;;;;;;41.80;17.52;;;;;;;8.35;64.63;99612.59;20924882;28;20455;-69
2021/04/05 08:40:48;;;;;;;39.50;17.23;;;;;;;8.12;64.59;99617.34;20921643;28;20041;-69
2021/04/05 08:50:57;;;;;;;41.35;17.35;;;;;;;8.74;62.41;99604.19;20925605;28;20053;-70
2021/04/05 09:01:02;;;;;;;36.22;15.90;;;;;;;8.91;61.14;99601.44;20914291;28;20037;-69
2021/04/05 09:11:04;;;;;;;;;;;;;;;8.91;61.46;99568.34;20928785;28;20124;-69
2021/04/05 09:21:30;;;;;;;32.88;15.38;;;;;;;9.28;60.61;99553.88;20892009;28;19980;-70
2021/04/05 09:31:58;;;;;;;35.63;15.50;;;;;;;9.22;60.95;99551.63;20909889;28;20051;-71
2021/04/05 09:42:29;;;;;;;35.78;14.90;;;;;;;9.41;59.68;99548.72;20922085;28;20049;-70
2021/04/05 09:53:03;;;;;;;35.58;15.00;;;;;;;9.59;59.85;99538.88;20894327;28;20048;-70
2021/04/05 10:03:07;;;;;;;36.65;14.52;;;;;;;9.12;60.83;99534.88;20969801;28;20049;-70
2021/04/05 10:13:08;;;;;;;30.70;13.93;;;;;;;9.30;61.14;99556.38;20935616;28;20053;-70
2021/04/05 10:23:11;;;;;;;35.45;14.63;;;;;;;9.36;61.17;99566.44;20934342;28;20044;-70
2021/04/05 10:33:16;;;;;;;30.92;14.60;;;;;;;9.26;61.63;99550.50;20912245;28;20548;-70
2021/04/05 10:43:39;;;;;;;33.40;14.57;;;;;;;9.29;61.78;99552.09;20906648;28;20056;-70
2021/04/05 10:53:42;;;;;;;33.42;13.98;;;;;;;9.42;61.72;99529.50;20897946;28;20049;-70
2021/04/05 11:03:48;;;;;;;30.67;13.23;;;;;;;9.26;61.26;99524.41;20926628;28;20496;-70
2021/04/05 11:13:57;;;;;;;29.75;12.10;;;;;;;9.44;59.62;99504.13;20931233;28;20099;-70
2021/04/05 11:23:59;;;;;;;30.45;10.15;;;;;;;9.31;58.35;99503.22;20923682;28;20045;-70
2021/04/05 11:34:01;;;;;;;25.55;10.60;;;;;;;9.35;58.62;99491.63;20940716;28;20049;-71
2021/04/05 11:44:04;;;;;;;21.60;9.50;;;;;;;9.43;58.93;99487.63;20884403;28;20459;-71
2021/04/05 11:54:07;;;;;;;22.60;9.40;;;;;;;9.53;58.95;99469.56;20953306;28;20045;-71
2021/04/05 12:04:14;;;;;;;22.17;9.57;;;;;;;9.33;59.82;99470.88;20955097;28;20080;-71
2021/04/05 12:14:29;;;;;;;26.10;9.40;;;;;;;9.13;60.92;99486.13;20919386;28;20052;-71
2021/04/05 12:24:36;;;;;;;23.67;10.13;;;;;;;8.66;63.07;99476.00;20942255;28;20473;-71
2021/04/05 12:34:38;;;;;;;22.38;10.13;;;;;;;8.80;63.38;99474.22;20965600;28;20400;-71
2021/04/05 12:44:43;;;;;;;19.50;10.18;;;;;;;8.73;64.60;99462.50;20944836;28;20045;-71
2021/04/05 12:54:50;;;;;;;21.73;9.98;;;;;;;8.52;68.00;99480.31;20951449;28;20053;-71
2021/04/05 13:05:01;;;;;;;23.73;10.83;;;;;;;8.24;75.60;99488.03;20860720;28;20049;-70
2021/04/05 13:15:07;;;;;;;24.50;11.35;;;;;;;7.71;79.79;99497.22;20905898;28;20048;-69
2021/04/05 13:25:13;;;;;;;22.88;12.40;;;;;;;7.55;82.45;99490.38;20952791;28;20049;-69
2021/04/05 13:35:21;;;;;;;23.30;12.55;;;;;;;7.33;86.43;99508.94;20927969;28;20044;-69
2021/04/05 13:45:32;;;;;;;26.02;13.23;;;;;;;7.14;91.24;99539.50;20904679;28;20041;-69
2021/04/05 13:55:36;;;;;;;32.47;15.50;;;;;;;7.02;93.08;99545.34;20934778;28;20049;-69
2021/04/05 14:05:40;;;;;;;25.60;12.20;;;;;;;6.62;96.62;99550.03;20883914;28;20052;-68
2021/04/05 14:15:40;;;;;;;24.25;12.82;;;;;;;6.67;97.82;99542.84;20913146;28;20059;-69
2021/04/05 14:26:03;;;;;;;20.95;11.65;;;;;;;6.70;98.69;99547.91;20974766;28;20045;-69
2021/04/05 14:36:06;;;;;;;26.83;12.85;;;;;;;6.54;100.00;99559.16;20966957;28;20036;-69
2021/04/05 14:46:12;;;;;;;4.45;2.00;;;;;;;3.97;94.54;99619.34;20906371;28;20049;-68
2021/04/05 14:56:15;;;;;;;4.88;1.05;;;;;;;2.92;100.00;99657.78;20895902;28;20067;-66
2021/04/05 15:06:22;;;;;;;1.95;0.93;;;;;;;2.55;100.00;99665.09;20909671;28;20037;-67
2021/04/05 15:16:29;;;;;;;6.40;2.33;;;;;;;2.45;100.00;99681.78;20910524;28;20041;-66
2021/04/05 15:26:31;;;;;;;4.90;1.63;;;;;;;2.42;100.00;99718.91;20907199;28;20041;-67
2021/04/05 15:36:33;;;;;;;3.00;1.40;;;;;;;2.27;100.00;99734.88;20928413;28;20499;-68
2021/04/05 15:46:56;;;;;;;5.55;1.30;;;;;;;2.06;93.70;99769.09;20917205;28;20405;-67
2021/04/05 15:57:02;;;;;;;3.70;1.00;;;;;;;2.06;94.10;99792.31;20921896;28;20488;-68
2021/04/05 16:07:08;;;;;;;3.25;1.55;;;;;;;1.96;93.37;99808.97;20917606;28;20041;-68
2021/04/05 16:17:13;;;;;;;5.32;1.42;;;;;;;2.03;92.73;99810.50;20913153;28;20095;-70
2021/04/05 16:27:15;;;;;;;4.67;1.80;;;;;;;2.07;90.48;99792.28;20913717;28;20041;-71
2021/04/05 16:37:26;;;;;;;5.25;1.70;;;;;;;2.21;92.38;99802.19;20905472;28;20284;-69
2021/04/05 16:47:33;;;;;;;6.05;1.70;;;;;;;2.37;90.24;99825.81;20920836;28;20674;-69
2021/04/05 16:57:41;;;;;;;5.97;2.00;;;;;;;2.57;90.92;99841.56;20912921;28;20111;-69
2021/04/05 17:07:54;;;;;;;9.68;2.10;;;;;;;2.67;88.13;99844.69;20901640;28;20479;-70
2021/04/05 17:17:58;;;;;;;4.68;2.08;;;;;;;2.70;86.86;99873.00;20907435;28;20476;-69
2021/04/05 17:28:12;;;;;;;5.43;2.00;;;;;;;2.77;88.61;99884.88;20910212;28;20495;-70
2021/04/05 17:38:21;;;;;;;8.63;2.17;;;;;;;2.80;84.32;99887.34;20912007;28;20088;-70
2021/04/05 17:48:37;;;;;;;7.68;1.73;;;;;;;2.83;83.82;99910.53;20907697;28;20555;-69
2021/04/05 17:59:01;;;;;;;5.45;1.80;;;;;;;2.87;83.61;99930.22;20915323;28;20131;-70
2021/04/05 18:09:41;;;;;;;6.15;2.22;;;;;;;2.89;86.71;99949.97;20901620;28;20392;-69
2021/04/05 18:20:03;;;;;;;48.30;7.45;;;;;;;3.55;86.26;99976.34;20913398;28;20044;-70
2021/04/05 18:30:45;;;;;;;18.77;8.90;;;;;;;2.61;92.25;99998.16;20905227;28;20194;-70
2021/04/05 18:40:49;;;;;;;8.27;2.67;;;;;;;2.30;90.85;100017.97;20914338;28;20041;-70
2021/04/05 18:51:14;;;;;;;5.37;2.30;;;;;;;2.06;90.59;100027.19;20927876;28;20037;-69
2021/04/05 19:01:17;;;;;;;9.73;4.35;;;;;;;1.88;93.97;100038.00;20892609;28;20041;-69
2021/04/05 19:11:20;;;;;;;11.27;3.63;;;;;;;1.71;93.38;100059.03;20921314;28;20072;-70
2021/04/05 19:21:58;;;;;;;9.82;4.40;;;;;;;1.53;92.89;100065.47;20928294;28;20051;-70
2021/04/05 19:32:30;;;;;;;7.68;3.33;;;;;;;1.38;88.48;100086.44;20914198;28;20111;-69
2021/04/05 19:42:37;;;;;;;10.38;3.67;;;;;;;1.28;86.82;100085.78;20928834;28;20053;-70
2021/04/05 19:52:54;;;;;;;12.80;4.30;;;;;;;1.24;85.54;100097.06;20907003;28;20115;-70
2021/04/05 20:03:30;;;;;;;9.90;3.60;;;;;;;0.94;85.49;100113.16;20915098;28;20065;-69
2021/04/05 20:13:47;;;;;;;5.80;2.42;;;;;;;1.03;78.46;100118.09;20919192;28;20052;-70
2021/04/05 20:24:00;;;;;;;6.38;2.25;;;;;;;1.11;71.71;100125.69;20911052;28;20045;-69
2021/04/05 20:34:17;;;;;;;6.35;1.63;;;;;;;0.91;73.86;100146.72;20909096;28;20099;-70
2021/04/05 20:44:36;;;;;;;6.32;1.42;;;;;;;0.78;72.58;100153.81;20907179;28;20534;-70
2021/04/05 20:54:54;;;;;;;12.10;1.85;;;;;;;0.64;73.47;100155.78;20946293;28;20048;-70
2021/04/05 21:04:59;;;;;;;7.90;1.38;;;;;;;0.45;77.46;100164.72;20910414;28;20057;-70
2021/04/05 21:15:05;;;;;;;6.78;1.90;;;;;;;0.37;77.00;100171.69;20950170;28;20049;-70
2021/04/05 21:25:09;;;;;;;8.65;2.33;;;;;;;0.09;79.40;100178.16;20917849;28;20052;-71
2021/04/05 21:35:16;;;;;;;14.40;3.08;;;;;;;0.10;78.86;100193.59;20940604;28;20056;-71
2021/04/05 21:45:24;;;;;;;9.57;2.53;;;;;;;0.03;80.08;100204.00;20947249;28;20045;-71
2021/04/05 21:55:30;;;;;;;9.82;2.47;;;;;;;-0.01;78.24;100222.06;20930821;28;20045;-72
2021/04/05 22:05:52;;;;;;;6.28;1.60;;;;;;;0.04;74.50;100232.28;20923511;28;20123;-71
2021/04/05 22:15:55;;;;;;;5.47;1.75;;;;;;;0.00;74.13;100234.00;20917743;28;20115;-71
2021/04/05 22:26:30;;;;;;;8.02;1.50;;;;;;;-0.18;76.42;100236.00;20950708;28;20090;-71
2021/04/05 22:36:47;;;;;;;7.43;2.20;;;;;;;-0.35;80.75;100236.22;20911823;28;20037;-70
2021/04/05 22:46:53;;;;;;;12.20;4.32;;;;;;;-0.48;82.08;100244.97;20903256;28;20076;-70
2021/04/05 22:56:55;;;;;;;14.43;5.82;;;;;;;-0.63;83.09;100255.41;20930827;28;20045;-70
2021/04/05 23:06:56;;;;;;;7.22;2.00;;;;;;;-0.65;84.03;100249.44;20932773;28;20045;-70
2021/04/05 23:17:01;;;;;;;5.63;1.58;;;;;;;-0.67;80.45;100257.19;20918080;28;20053;-70
2021/04/05 23:27:15;;;;;;;3.17;1.20;;;;;;;-0.74;82.12;100258.09;20945771;28;20412;-69
2021/04/05 23:37:19;;;;;;;6.43;1.75;;;;;;;-0.77;81.05;100270.13;20935785;28;20469;-70
2021/04/05 23:47:21;;;;;;;8.20;2.63;;;;;;;-0.87;82.21;100261.69;20945360;28;20044;-70
2021/04/05 23:57:35;;;;;;;7.53;1.92;;;;;;;-0.95;81.36;100250.63;20939648;28;20048;-70
